createdAt,value
2024-02-02T00:02:20.215Z,3.97
2024-02-02T00:04:50.392Z,2.40
2024-02-02T00:07:20.728Z,2.58
2024-02-02T00:09:52.010Z,2.00
2024-02-02T00:12:24.894Z,1.70
2024-02-02T00:14:57.912Z,1.70
2024-02-02T00:17:43.453Z,1.70
2024-02-02T00:20:14.473Z,1.75
2024-02-02T00:22:46.169Z,1.92
2024-02-02T00:25:17.084Z,1.80
2024-02-02T00:27:51.584Z,1.48
2024-02-02T00:30:23.758Z,1.50
2024-02-02T00:32:54.535Z,1.48
2024-02-02T00:35:25.121Z,1.88
2024-02-02T00:37:55.381Z,1.63
2024-02-02T00:40:25.865Z,1.70
2024-02-02T00:42:58.121Z,1.77
2024-02-02T00:45:29.149Z,1.63
2024-02-02T00:48:02.753Z,1.75
2024-02-02T00:50:34.458Z,1.65
2024-02-02T00:53:04.783Z,1.70
2024-02-02T00:55:35.336Z,1.70
2024-02-02T00:58:06.584Z,1.58
2024-02-02T01:00:37.126Z,1.40
2024-02-02T01:03:08.794Z,1.83
2024-02-02T01:05:38.852Z,1.73
2024-02-02T01:08:10.895Z,1.83
2024-02-02T01:13:13.800Z,2.05
2024-02-02T01:15:44.102Z,1.80
2024-02-02T01:18:15.171Z,2.10
2024-02-02T01:21:47.902Z,2.25
2024-02-02T01:24:18.610Z,2.03
2024-02-02T01:31:27.516Z,2.00
2024-02-02T01:34:25.298Z,1.63
2024-02-02T01:36:55.591Z,1.60
2024-02-02T01:39:25.777Z,1.70
2024-02-02T01:41:57.247Z,1.42
2024-02-02T01:44:27.859Z,1.65
2024-02-02T01:46:58.645Z,1.75
2024-02-02T01:49:29.516Z,1.98
2024-02-02T01:52:00.272Z,2.00
2024-02-02T01:54:31.127Z,1.63
2024-02-02T01:57:02.121Z,1.90
2024-02-02T01:59:33.037Z,1.88
2024-02-02T02:02:04.541Z,1.90
2024-02-02T02:04:35.485Z,1.90
2024-02-02T02:07:05.768Z,2.58
2024-02-02T02:09:36.529Z,2.17
2024-02-02T02:12:07.191Z,2.10
2024-02-02T02:14:38.262Z,1.80
2024-02-02T02:17:08.741Z,2.17
2024-02-02T02:19:41.857Z,2.00
2024-02-02T02:22:12.872Z,1.83
2024-02-02T02:24:43.023Z,1.88
2024-02-02T02:27:13.880Z,1.80
2024-02-02T02:29:45.085Z,1.73
2024-02-02T02:32:16.106Z,1.58
2024-02-02T02:34:46.800Z,1.80
2024-02-02T02:37:17.905Z,1.92
2024-02-02T02:39:48.773Z,1.70
2024-02-02T02:42:19.633Z,1.95
2024-02-02T02:44:50.654Z,1.58
2024-02-02T02:47:21.822Z,1.58
2024-02-02T02:49:52.221Z,1.90
2024-02-02T02:52:22.450Z,1.85
2024-02-02T02:54:52.916Z,2.05
2024-02-02T02:57:23.482Z,1.88
2024-02-02T02:59:53.675Z,1.80
2024-02-02T03:02:24.952Z,1.80
2024-02-02T03:04:55.459Z,1.80
2024-02-02T03:07:27.466Z,1.65
2024-02-02T03:09:58.825Z,1.85
2024-02-02T03:12:29.008Z,1.88
2024-02-02T03:15:00.417Z,2.10
2024-02-02T03:17:30.836Z,1.83
2024-02-02T03:20:00.919Z,1.75
2024-02-02T03:22:32.657Z,2.10
2024-02-02T03:25:02.950Z,2.00
2024-02-02T03:27:34.125Z,2.20
2024-02-02T03:30:09.422Z,2.10
2024-02-02T03:32:39.931Z,1.98
2024-02-02T03:35:11.453Z,1.92
2024-02-02T03:37:41.449Z,1.83
2024-02-02T03:40:13.258Z,2.00
2024-02-02T03:42:43.549Z,2.33
2024-02-02T03:45:16.793Z,1.75
2024-02-02T03:47:47.397Z,2.13
2024-02-02T03:50:18.488Z,1.90
2024-02-02T03:52:49.925Z,1.92
2024-02-02T03:55:21.078Z,1.83
2024-02-02T03:57:51.131Z,2.00
2024-02-02T04:00:21.974Z,1.75
2024-02-02T04:02:56.053Z,2.10
2024-02-02T04:05:26.392Z,2.10
2024-02-02T04:07:57.191Z,2.10
2024-02-02T04:10:28.788Z,2.28
2024-02-02T04:13:02.728Z,1.88
2024-02-02T04:15:34.156Z,2.25
2024-02-02T04:18:04.458Z,2.00
2024-02-02T04:20:34.714Z,2.10
2024-02-02T04:23:05.010Z,2.55
2024-02-02T04:25:37.535Z,2.20
2024-02-02T04:28:10.450Z,2.20
2024-02-02T04:30:41.067Z,2.10
2024-02-02T04:33:13.798Z,2.10
2024-02-02T04:35:44.733Z,2.88
2024-02-02T04:38:15.514Z,2.25
2024-02-02T04:40:46.140Z,2.20
2024-02-02T04:43:17.085Z,2.45
2024-02-02T04:45:47.381Z,2.35
2024-02-02T04:48:18.322Z,2.00
2024-02-02T04:50:49.508Z,2.42
2024-02-02T04:53:20.696Z,2.15
2024-02-02T04:55:52.401Z,2.90
2024-02-02T04:58:24.605Z,2.83
2024-02-02T05:00:56.002Z,2.50
2024-02-02T05:03:27.246Z,2.42
2024-02-02T05:05:57.546Z,2.38
2024-02-02T05:08:27.989Z,1.95
2024-02-02T05:10:58.668Z,2.70
2024-02-02T05:13:29.093Z,2.95
2024-02-02T05:15:59.109Z,2.17
2024-02-02T05:18:29.054Z,2.53
2024-02-02T05:20:59.134Z,2.50
2024-02-02T05:23:29.684Z,2.40
2024-02-02T05:25:59.911Z,2.00
2024-02-02T05:28:30.180Z,2.40
2024-02-02T05:31:01.949Z,2.55
2024-02-02T05:33:32.620Z,2.35
2024-02-02T05:36:03.548Z,2.55
2024-02-02T05:38:34.513Z,2.33
2024-02-02T05:41:07.240Z,2.50
2024-02-02T05:43:38.260Z,2.38
2024-02-02T05:46:09.042Z,2.42
2024-02-02T05:48:40.483Z,2.25
2024-02-02T05:51:10.570Z,2.90
2024-02-02T05:53:40.531Z,2.45
2024-02-02T05:56:12.083Z,2.38
2024-02-02T05:58:43.568Z,2.55
2024-02-02T06:01:14.879Z,2.58
2024-02-02T06:03:45.354Z,2.55
2024-02-02T06:06:15.818Z,2.42
2024-02-02T06:08:45.950Z,2.50
2024-02-02T06:11:15.867Z,2.60
2024-02-02T06:13:46.063Z,2.70
2024-02-02T06:16:15.972Z,2.70
2024-02-02T06:18:45.943Z,2.92
2024-02-02T06:21:15.981Z,2.75
2024-02-02T06:23:47.119Z,2.45
2024-02-02T06:26:17.449Z,2.88
2024-02-02T06:28:49.049Z,3.40
2024-02-02T06:31:19.388Z,2.78
2024-02-02T06:33:50.402Z,2.95
2024-02-02T06:36:21.253Z,2.83
2024-02-02T06:38:52.053Z,3.03
2024-02-02T06:41:22.713Z,2.75
2024-02-02T06:43:52.951Z,3.05
2024-02-02T06:46:23.998Z,2.70
2024-02-02T06:48:54.548Z,3.00
2024-02-02T06:51:24.541Z,3.35
2024-02-02T06:53:55.660Z,3.40
2024-02-02T06:56:41.767Z,3.20
2024-02-02T06:59:15.285Z,2.90
2024-02-02T07:01:46.208Z,2.78
2024-02-02T07:04:19.624Z,2.95
2024-02-02T07:06:50.365Z,3.03
2024-02-02T07:09:31.937Z,2.85
2024-02-02T07:12:04.373Z,2.58
2024-02-02T07:14:46.926Z,2.97
2024-02-02T07:17:42.239Z,2.85
2024-02-02T07:20:27.594Z,2.63
2024-02-02T07:23:03.442Z,3.28
2024-02-02T07:25:43.704Z,2.65
2024-02-02T07:28:41.518Z,3.08
2024-02-02T07:31:13.094Z,3.17
2024-02-02T07:33:44.512Z,2.97
2024-02-02T07:36:33.975Z,2.75
2024-02-02T07:39:05.425Z,2.97
2024-02-02T07:41:35.996Z,2.70
2024-02-02T07:44:06.777Z,4.05
2024-02-02T07:46:37.070Z,3.00
2024-02-02T07:49:08.041Z,2.58
2024-02-02T07:51:40.010Z,3.03
2024-02-02T07:54:11.616Z,2.88
2024-02-02T07:56:44.401Z,3.35
2024-02-02T07:59:14.656Z,3.03
2024-02-02T08:01:44.567Z,3.10
2024-02-02T08:04:16.114Z,3.90
2024-02-02T08:06:47.135Z,2.40
2024-02-02T08:09:18.123Z,2.78
2024-02-02T08:11:48.424Z,2.97
2024-02-02T08:14:18.564Z,2.80
2024-02-02T08:16:48.878Z,2.75
2024-02-02T08:19:19.328Z,2.67
2024-02-02T08:21:49.318Z,3.33
2024-02-02T08:24:19.360Z,2.80
2024-02-02T08:26:50.041Z,3.15
2024-02-02T08:29:20.169Z,2.97
2024-02-02T08:31:50.507Z,3.03
2024-02-02T08:34:20.500Z,2.60
2024-02-02T08:36:50.424Z,2.80
2024-02-02T08:39:20.819Z,2.50
2024-02-02T08:41:51.067Z,2.92
2024-02-02T08:44:26.157Z,3.10
2024-02-02T08:46:57.003Z,2.97
2024-02-02T08:49:44.889Z,3.13
2024-02-02T08:52:34.165Z,2.83
2024-02-02T08:55:10.071Z,2.65
2024-02-02T08:58:04.881Z,3.08
2024-02-02T09:00:41.386Z,2.90
2024-02-02T09:03:32.690Z,3.58
2024-02-02T09:06:10.221Z,3.13
2024-02-02T09:08:44.181Z,2.63
2024-02-02T09:11:25.585Z,3.40
2024-02-02T09:14:22.146Z,3.30
2024-02-02T09:16:55.939Z,2.83
2024-02-02T09:19:33.622Z,2.60
2024-02-02T09:22:08.923Z,2.45
2024-02-02T09:24:50.586Z,3.20
2024-02-02T09:27:43.632Z,2.70
2024-02-02T09:30:23.415Z,2.80
2024-02-02T09:32:54.332Z,3.03
2024-02-02T09:35:43.135Z,2.90
2024-02-02T09:38:16.184Z,2.90
2024-02-02T09:41:18.439Z,2.47
2024-02-02T09:44:33.086Z,2.53
2024-02-02T09:47:31.638Z,2.80
2024-02-02T09:52:57.658Z,2.75
2024-02-02T09:55:35.673Z,2.42
2024-02-02T09:58:38.188Z,2.58
2024-02-02T10:01:46.104Z,3.00
2024-02-02T10:04:41.231Z,2.30
2024-02-02T10:07:15.297Z,2.60
2024-02-02T10:10:28.823Z,2.38
2024-02-02T10:13:16.524Z,2.30
2024-02-02T10:16:24.367Z,2.05
2024-02-02T10:19:15.927Z,2.22
2024-02-02T10:22:28.712Z,1.90
2024-02-02T10:25:19.256Z,2.60
2024-02-02T10:28:39.047Z,2.17
2024-02-02T10:32:01.845Z,2.33
2024-02-02T10:34:50.616Z,2.55
2024-02-02T10:37:37.708Z,2.60
2024-02-02T10:40:11.413Z,2.17
2024-02-02T10:43:11.686Z,2.20
2024-02-02T10:46:08.760Z,1.83
2024-02-02T10:48:42.140Z,2.22
2024-02-02T10:51:30.604Z,2.22
2024-02-02T10:54:12.936Z,2.05
2024-02-02T10:57:08.784Z,2.17
2024-02-02T10:59:40.044Z,2.55
2024-02-02T11:02:35.569Z,1.90
2024-02-02T11:05:20.135Z,1.80
2024-02-02T11:07:59.844Z,2.20
2024-02-02T11:11:03.106Z,2.25
2024-02-02T11:13:54.129Z,2.25
2024-02-02T11:17:00.033Z,2.13
2024-02-02T11:19:38.518Z,1.73
2024-02-02T11:22:27.890Z,1.77
2024-02-02T11:25:12.045Z,1.75
2024-02-02T11:27:58.402Z,2.15
2024-02-02T11:31:05.085Z,2.33
2024-02-02T11:34:14.250Z,1.70
2024-02-02T11:36:44.531Z,2.00
2024-02-02T11:39:21.957Z,1.75
2024-02-02T11:41:53.123Z,2.03
2024-02-02T11:44:24.365Z,2.58
2024-02-02T11:46:56.936Z,1.98
2024-02-02T11:49:33.257Z,2.05
2024-02-02T11:52:12.208Z,2.17
2024-02-02T11:54:55.114Z,1.77
2024-02-02T11:57:30.617Z,1.60
2024-02-02T12:00:04.111Z,1.80
2024-02-02T12:02:57.425Z,1.70
2024-02-02T12:05:32.155Z,2.20
2024-02-02T12:08:30.710Z,1.95
2024-02-02T12:11:04.076Z,1.90
2024-02-02T12:13:35.019Z,2.05
2024-02-02T12:16:07.129Z,1.77
2024-02-02T12:18:40.317Z,1.80
2024-02-02T12:21:17.608Z,1.70
2024-02-02T12:23:49.679Z,1.80
2024-02-02T12:26:20.489Z,1.73
2024-02-02T12:28:51.070Z,1.92
2024-02-02T12:31:21.205Z,1.92
2024-02-02T12:33:52.549Z,1.63
2024-02-02T12:36:24.958Z,1.92
2024-02-02T12:38:55.502Z,1.90
2024-02-02T12:41:27.859Z,1.80
2024-02-02T12:44:00.571Z,1.75
2024-02-02T12:46:33.103Z,1.90
2024-02-02T12:49:03.455Z,2.33
2024-02-02T12:51:33.353Z,1.83
2024-02-02T12:54:04.715Z,1.98
2024-02-02T12:59:07.441Z,1.60
2024-02-02T13:01:38.856Z,2.10
2024-02-02T13:04:12.636Z,2.10
2024-02-02T13:06:49.827Z,2.50
2024-02-02T13:09:32.303Z,2.00
2024-02-02T13:12:08.937Z,2.38
2024-02-02T13:14:39.278Z,7.22
2024-02-02T13:17:15.594Z,1.98
2024-02-02T13:19:47.760Z,1.63
2024-02-02T13:22:28.995Z,1.58
2024-02-02T13:25:01.365Z,1.40
2024-02-02T13:27:32.627Z,1.50
2024-02-02T13:30:07.107Z,1.58
2024-02-02T13:32:40.660Z,1.60
2024-02-02T13:35:14.870Z,1.60
2024-02-02T13:37:46.255Z,1.70
2024-02-02T13:40:16.615Z,1.70
2024-02-02T13:42:49.611Z,2.00
2024-02-02T13:45:20.350Z,1.52
2024-02-02T13:47:58.480Z,1.52
2024-02-02T13:50:32.923Z,1.70
2024-02-02T13:53:03.569Z,1.58
2024-02-02T13:55:35.348Z,1.73
2024-02-02T13:58:08.419Z,1.60
2024-02-02T14:00:38.934Z,1.40
2024-02-02T14:03:12.208Z,1.60
2024-02-02T14:05:44.231Z,1.80
2024-02-02T14:08:17.123Z,1.45
2024-02-02T14:10:53.166Z,1.48
2024-02-02T14:13:24.420Z,1.48
2024-02-02T14:15:58.142Z,1.30
2024-02-02T14:18:28.786Z,1.45
2024-02-02T14:20:58.951Z,1.60
2024-02-02T14:23:29.043Z,1.25
2024-02-02T14:26:11.479Z,1.30
2024-02-02T14:28:42.236Z,1.20
2024-02-02T14:31:13.195Z,1.60
2024-02-02T14:33:43.594Z,1.60
2024-02-02T14:36:16.637Z,1.40
2024-02-02T14:38:48.560Z,1.40
2024-02-02T14:43:48.577Z,1.40
2024-02-02T14:46:22.995Z,1.80
2024-02-02T14:48:54.109Z,1.52
2024-02-02T14:51:25.590Z,1.50
2024-02-02T14:53:56.814Z,1.25
2024-02-02T14:56:28.976Z,1.60
2024-02-02T14:59:10.306Z,1.40
2024-02-02T15:01:42.246Z,1.45
2024-02-02T15:04:12.587Z,1.50
2024-02-02T15:06:43.635Z,1.73
2024-02-02T15:11:48.565Z,1.40
2024-02-02T15:14:18.470Z,1.60
2024-02-02T15:16:48.594Z,1.80
2024-02-02T15:19:18.634Z,3.25
2024-02-02T15:21:50.864Z,1.67
2024-02-02T15:24:22.657Z,1.38
2024-02-02T15:26:52.836Z,1.48
2024-02-02T15:29:22.862Z,1.75
2024-02-02T15:31:53.893Z,1.35
2024-02-02T15:34:25.644Z,1.70
2024-02-02T15:36:56.615Z,1.35
2024-02-02T15:39:34.987Z,1.73
2024-02-02T15:42:11.027Z,1.63
2024-02-02T15:44:41.361Z,1.73
2024-02-02T15:47:12.684Z,1.48
2024-02-02T15:49:43.310Z,1.65
2024-02-02T15:52:14.435Z,1.80
2024-02-02T15:54:45.227Z,1.88
2024-02-02T15:57:15.323Z,1.52
2024-02-02T15:59:45.871Z,1.45
2024-02-02T16:02:16.529Z,1.50
2024-02-02T16:04:47.295Z,1.65
2024-02-02T16:07:19.128Z,1.52
2024-02-02T16:09:49.741Z,1.50
2024-02-02T16:12:21.198Z,1.50
2024-02-02T16:17:21.823Z,1.70
2024-02-02T16:19:55.295Z,1.83
2024-02-02T16:22:27.029Z,1.50
2024-02-02T16:24:57.470Z,1.80
2024-02-02T16:27:27.985Z,1.48
2024-02-02T16:29:58.275Z,1.40
2024-02-02T16:32:28.544Z,1.52
2024-02-02T16:35:05.801Z,1.52
2024-02-02T16:37:36.735Z,1.77
2024-02-02T16:40:09.634Z,2.17
2024-02-02T16:42:46.128Z,1.83
2024-02-02T16:45:20.398Z,1.40
2024-02-02T16:47:51.820Z,1.60
2024-02-02T16:50:23.240Z,1.55
2024-02-02T16:52:56.344Z,1.73
2024-02-02T16:55:27.744Z,1.45
2024-02-02T17:00:29.527Z,1.73
2024-02-02T17:03:02.323Z,1.80
2024-02-02T17:05:32.837Z,1.55
2024-02-02T17:08:02.992Z,1.50
2024-02-02T17:10:34.198Z,1.48
2024-02-02T17:15:36.649Z,1.60
2024-02-02T17:18:08.290Z,1.70
2024-02-02T17:20:38.314Z,1.70
2024-02-02T17:23:08.612Z,1.52
2024-02-02T17:25:39.430Z,1.60
2024-02-02T17:28:10.162Z,1.55
2024-02-02T17:30:41.189Z,1.98
2024-02-02T17:33:12.552Z,1.73
2024-02-02T17:35:47.158Z,1.83
2024-02-02T17:38:18.818Z,1.58
2024-02-02T17:40:49.018Z,1.52
2024-02-02T17:43:19.561Z,1.60
2024-02-02T17:45:49.722Z,1.50
2024-02-02T17:48:20.141Z,1.60
2024-02-02T17:50:50.276Z,1.98
2024-02-02T17:53:20.156Z,1.67
2024-02-02T17:55:50.943Z,1.80
2024-02-02T17:58:21.493Z,1.50
2024-02-02T18:00:51.401Z,1.48
2024-02-02T18:03:21.444Z,1.50
2024-02-02T18:05:51.430Z,1.60
2024-02-02T18:08:21.807Z,1.60
2024-02-02T18:10:53.415Z,2.25
2024-02-02T18:13:24.135Z,1.17
2024-02-02T18:15:54.580Z,1.02
2024-02-02T18:18:25.204Z,0.93
2024-02-02T18:20:55.744Z,0.90
2024-02-02T18:23:28.921Z,1.23
2024-02-02T18:25:59.244Z,1.15
2024-02-02T18:28:30.689Z,2.20
2024-02-02T18:33:32.244Z,1.23
2024-02-02T18:36:04.975Z,1.02
2024-02-02T18:38:37.197Z,1.00
2024-02-02T18:41:08.767Z,1.25
2024-02-02T18:43:41.249Z,1.35
2024-02-02T18:46:12.676Z,0.98
2024-02-02T18:48:44.528Z,1.33
2024-02-02T18:51:18.664Z,1.05
2024-02-02T18:53:48.961Z,1.10
2024-02-02T18:56:19.547Z,1.27
2024-02-02T18:58:51.251Z,1.50
2024-02-02T19:01:31.845Z,1.52
2024-02-02T19:04:02.247Z,1.40
2024-02-02T19:06:32.550Z,1.45
2024-02-02T19:09:03.463Z,1.60
2024-02-02T19:11:34.052Z,1.58
2024-02-02T19:17:21.578Z,1.48
2024-02-02T19:19:52.418Z,1.77
2024-02-02T19:22:22.744Z,1.58
2024-02-02T19:24:54.131Z,1.83
2024-02-02T19:27:24.311Z,1.70
2024-02-02T19:29:54.761Z,1.63
2024-02-02T19:32:25.166Z,1.73
2024-02-02T19:34:55.095Z,1.80
2024-02-02T19:37:26.379Z,1.75
2024-02-02T19:39:56.612Z,1.85
2024-02-02T19:42:28.419Z,2.00
2024-02-02T19:47:28.307Z,2.03
2024-02-02T19:49:58.540Z,2.17
2024-02-02T19:52:29.384Z,2.10
2024-02-02T19:55:02.116Z,1.80
2024-02-02T19:57:33.674Z,1.90
2024-02-02T20:00:31.972Z,1.98
2024-02-02T20:03:02.587Z,1.80
2024-02-02T20:05:34.198Z,1.73
2024-02-02T20:08:04.553Z,2.00
2024-02-02T20:10:43.769Z,1.85
2024-02-02T20:13:14.048Z,1.70
2024-02-02T20:15:45.684Z,1.77
2024-02-02T20:18:16.438Z,2.05
2024-02-02T20:20:46.686Z,1.65
2024-02-02T20:23:16.704Z,1.67
2024-02-02T20:25:47.691Z,1.52
2024-02-02T20:28:17.861Z,1.20
2024-02-02T20:30:48.077Z,1.73
2024-02-02T20:33:18.291Z,1.73
2024-02-02T20:35:48.896Z,1.70
2024-02-02T20:38:19.193Z,2.20
2024-02-02T20:40:49.071Z,1.20
2024-02-02T20:43:19.046Z,2.50
2024-02-02T20:45:49.508Z,2.30
2024-02-02T20:48:25.099Z,2.25
2024-02-02T20:50:57.556Z,1.85
2024-02-02T20:53:27.980Z,1.73
2024-02-02T20:56:01.885Z,1.80
2024-02-02T20:58:31.871Z,3.40
2024-02-02T21:01:04.239Z,1.88
2024-02-02T21:03:35.139Z,1.83
2024-02-02T21:06:08.309Z,2.05
2024-02-02T21:08:39.782Z,1.83
2024-02-02T21:11:11.942Z,1.90
2024-02-02T21:13:42.606Z,2.03
2024-02-02T21:16:40.181Z,1.80
2024-02-02T21:21:59.920Z,1.80
2024-02-02T21:24:31.100Z,1.88
2024-02-02T21:27:01.968Z,1.73
2024-02-02T21:29:35.638Z,1.85
2024-02-02T21:32:06.943Z,2.00
2024-02-02T21:34:38.040Z,1.73
2024-02-02T21:37:08.158Z,2.03
2024-02-02T21:39:42.459Z,7.57
2024-02-02T21:42:14.670Z,9.25
2024-02-02T21:44:45.294Z,7.07
2024-02-02T21:47:15.376Z,2.60
2024-02-02T21:49:48.208Z,1.83
2024-02-02T21:52:19.855Z,1.50
2024-02-02T21:54:50.874Z,2.83
2024-02-02T21:57:21.148Z,1.70
2024-02-02T21:59:54.719Z,1.95
2024-02-02T22:02:25.873Z,1.77
2024-02-02T22:04:56.306Z,1.60
2024-02-02T22:07:27.709Z,1.77
2024-02-02T22:10:18.401Z,1.58
2024-02-02T22:13:14.250Z,1.90
2024-02-02T22:15:44.816Z,1.50
2024-02-02T22:18:19.395Z,2.10
2024-02-02T22:20:57.488Z,1.52
2024-02-02T22:23:28.328Z,1.92
2024-02-02T22:26:47.354Z,1.80
2024-02-02T22:29:43.809Z,1.58
2024-02-02T22:33:33.158Z,1.55
2024-02-02T22:36:36.958Z,1.60
2024-02-02T22:39:08.420Z,1.58
2024-02-02T22:41:39.029Z,2.03
2024-02-02T22:44:34.499Z,1.50
2024-02-02T22:48:11.483Z,1.65
2024-02-02T22:55:06.579Z,2.22
2024-02-02T23:01:16.284Z,2.22
2024-02-02T23:03:47.432Z,2.50
2024-02-02T23:06:18.294Z,1.85
2024-02-02T23:08:49.841Z,1.88
2024-02-02T23:11:20.579Z,1.92
2024-02-02T23:13:51.023Z,2.50
2024-02-02T23:16:21.633Z,1.88
2024-02-02T23:18:52.452Z,2.00
2024-02-02T23:21:23.795Z,1.42
2024-02-02T23:23:54.192Z,2.00
2024-02-02T23:26:24.134Z,2.15
2024-02-02T23:28:55.551Z,1.85
2024-02-02T23:31:26.845Z,1.80
2024-02-02T23:34:01.950Z,1.52
2024-02-02T23:36:33.368Z,2.00
2024-02-02T23:39:04.497Z,1.80
2024-02-02T23:41:36.457Z,1.67
2024-02-02T23:44:07.717Z,2.35
2024-02-02T23:46:38.006Z,2.03
2024-02-02T23:49:09.125Z,2.22
2024-02-02T23:51:40.852Z,2.03
2024-02-02T23:54:12.714Z,2.03
2024-02-02T23:59:13.012Z,2.10
